sensor_id;sensor_type;location;lat;lon;timestamp;temperature;humidity
24144;DHT22;12307;50.828;6.080;2023-03-14T00:01:53;20.60;56.80
24144;DHT22;12307;50.828;6.080;2023-03-14T00:04:18;20.50;56.10
24144;DHT22;12307;50.828;6.080;2023-03-14T00:06:44;20.50;56.10
24144;DHT22;12307;50.828;6.080;2023-03-14T00:09:12;20.60;56.20
24144;DHT22;12307;50.828;6.080;2023-03-14T00:11:37;20.60;56.10
24144;DHT22;12307;50.828;6.080;2023-03-14T00:14:04;20.60;56.20
24144;DHT22;12307;50.828;6.080;2023-03-14T00:16:30;20.60;56.10
24144;DHT22;12307;50.828;6.080;2023-03-14T00:18:58;20.50;56.10
24144;DHT22;12307;50.828;6.080;2023-03-14T00:21:23;20.60;56.10
24144;DHT22;12307;50.828;6.080;2023-03-14T00:23:49;20.60;56.10
24144;DHT22;12307;50.828;6.080;2023-03-14T00:26:16;20.60;56.10
24144;DHT22;12307;50.828;6.080;2023-03-14T00:28:43;20.50;56.10
24144;DHT22;12307;50.828;6.080;2023-03-14T00:31:12;20.50;56.10
24144;DHT22;12307;50.828;6.080;2023-03-14T00:33:38;20.50;56.10
24144;DHT22;12307;50.828;6.080;2023-03-14T00:36:06;20.50;56.10
24144;DHT22;12307;50.828;6.080;2023-03-14T00:38:34;20.50;56.10
24144;DHT22;12307;50.828;6.080;2023-03-14T00:41:03;20.50;56.10
24144;DHT22;12307;50.828;6.080;2023-03-14T00:43:29;20.50;56.10
24144;DHT22;12307;50.828;6.080;2023-03-14T00:45:54;20.50;56.10
24144;DHT22;12307;50.828;6.080;2023-03-14T00:48:21;20.50;56.10
24144;DHT22;12307;50.828;6.080;2023-03-14T00:50:47;20.50;56.10
24144;DHT22;12307;50.828;6.080;2023-03-14T00:53:13;20.50;56.20
24144;DHT22;12307;50.828;6.080;2023-03-14T00:55:39;20.50;56.10
24144;DHT22;12307;50.828;6.080;2023-03-14T00:58:06;20.50;56.10
24144;DHT22;12307;50.828;6.080;2023-03-14T01:00:32;20.50;56.20
24144;DHT22;12307;50.828;6.080;2023-03-14T01:02:58;20.50;56.20
24144;DHT22;12307;50.828;6.080;2023-03-14T01:05:25;20.50;56.20
24144;DHT22;12307;50.828;6.080;2023-03-14T01:07:51;20.50;56.20
24144;DHT22;12307;50.828;6.080;2023-03-14T01:10:16;20.50;56.20
24144;DHT22;12307;50.828;6.080;2023-03-14T01:12:42;20.50;56.20
24144;DHT22;12307;50.828;6.080;2023-03-14T01:15:09;20.50;56.20
24144;DHT22;12307;50.828;6.080;2023-03-14T01:17:35;20.50;56.20
24144;DHT22;12307;50.828;6.080;2023-03-14T01:20:03;20.50;56.20
24144;DHT22;12307;50.828;6.080;2023-03-14T01:22:31;20.50;56.20
24144;DHT22;12307;50.828;6.080;2023-03-14T01:24:57;20.50;56.20
24144;DHT22;12307;50.828;6.080;2023-03-14T01:27:22;20.50;56.10
24144;DHT22;12307;50.828;6.080;2023-03-14T01:29:48;20.50;56.20
24144;DHT22;12307;50.828;6.080;2023-03-14T01:32:14;20.50;56.20
24144;DHT22;12307;50.828;6.080;2023-03-14T01:34:40;20.50;56.20
24144;DHT22;12307;50.828;6.080;2023-03-14T01:37:05;20.50;56.20
24144;DHT22;12307;50.828;6.080;2023-03-14T01:39:34;20.50;56.20
24144;DHT22;12307;50.828;6.080;2023-03-14T01:42:00;20.50;56.20
24144;DHT22;12307;50.828;6.080;2023-03-14T01:44:26;20.50;56.10
24144;DHT22;12307;50.828;6.080;2023-03-14T01:46:52;20.50;56.20
24144;DHT22;12307;50.828;6.080;2023-03-14T01:49:21;20.50;56.20
24144;DHT22;12307;50.828;6.080;2023-03-14T01:51:52;20.50;56.20
24144;DHT22;12307;50.828;6.080;2023-03-14T01:54:23;20.50;56.20
24144;DHT22;12307;50.828;6.080;2023-03-14T01:56:54;20.50;56.20
24144;DHT22;12307;50.828;6.080;2023-03-14T01:59:21;20.50;56.20
24144;DHT22;12307;50.828;6.080;2023-03-14T02:01:47;20.50;56.20
24144;DHT22;12307;50.828;6.080;2023-03-14T02:04:15;20.50;56.20
24144;DHT22;12307;50.828;6.080;2023-03-14T02:06:48;20.50;56.20
24144;DHT22;12307;50.828;6.080;2023-03-14T02:09:15;20.50;56.20
24144;DHT22;12307;50.828;6.080;2023-03-14T02:11:41;20.50;56.20
24144;DHT22;12307;50.828;6.080;2023-03-14T02:14:12;20.50;56.20
24144;DHT22;12307;50.828;6.080;2023-03-14T02:16:39;20.50;56.20
24144;DHT22;12307;50.828;6.080;2023-03-14T02:19:05;20.50;56.20
24144;DHT22;12307;50.828;6.080;2023-03-14T02:21:42;20.50;56.20
24144;DHT22;12307;50.828;6.080;2023-03-14T02:24:13;20.50;56.20
24144;DHT22;12307;50.828;6.080;2023-03-14T02:26:44;20.50;56.20
24144;DHT22;12307;50.828;6.080;2023-03-14T02:29:12;20.50;56.20
24144;DHT22;12307;50.828;6.080;2023-03-14T02:31:38;20.50;56.10
24144;DHT22;12307;50.828;6.080;2023-03-14T02:34:04;20.50;56.10
24144;DHT22;12307;50.828;6.080;2023-03-14T02:36:31;20.50;56.20
24144;DHT22;12307;50.828;6.080;2023-03-14T02:39:03;20.50;56.20
24144;DHT22;12307;50.828;6.080;2023-03-14T02:41:32;20.50;56.20
24144;DHT22;12307;50.828;6.080;2023-03-14T02:43:57;20.50;56.10
24144;DHT22;12307;50.828;6.080;2023-03-14T02:46:25;20.50;56.10
24144;DHT22;12307;50.828;6.080;2023-03-14T02:48:54;20.50;56.20
24144;DHT22;12307;50.828;6.080;2023-03-14T02:51:21;20.50;56.20
24144;DHT22;12307;50.828;6.080;2023-03-14T02:53:47;20.50;56.20
24144;DHT22;12307;50.828;6.080;2023-03-14T02:56:13;20.40;56.10
24144;DHT22;12307;50.828;6.080;2023-03-14T02:58:38;20.40;56.10
24144;DHT22;12307;50.828;6.080;2023-03-14T03:01:05;20.50;56.20
24144;DHT22;12307;50.828;6.080;2023-03-14T03:03:32;20.40;56.10
24144;DHT22;12307;50.828;6.080;2023-03-14T03:05:57;20.50;56.20
24144;DHT22;12307;50.828;6.080;2023-03-14T03:08:25;20.40;56.10
24144;DHT22;12307;50.828;6.080;2023-03-14T03:10:52;20.40;56.20
24144;DHT22;12307;50.828;6.080;2023-03-14T03:13:17;20.40;56.20
24144;DHT22;12307;50.828;6.080;2023-03-14T03:15:44;20.50;56.20
24144;DHT22;12307;50.828;6.080;2023-03-14T03:18:10;20.40;56.20
24144;DHT22;12307;50.828;6.080;2023-03-14T03:20:37;20.40;56.20
24144;DHT22;12307;50.828;6.080;2023-03-14T03:23:03;20.50;56.20
24144;DHT22;12307;50.828;6.080;2023-03-14T03:25:29;20.40;56.20
24144;DHT22;12307;50.828;6.080;2023-03-14T03:27:55;20.50;56.30
24144;DHT22;12307;50.828;6.080;2023-03-14T03:30:21;20.40;56.20
24144;DHT22;12307;50.828;6.080;2023-03-14T03:32:47;20.40;56.30
24144;DHT22;12307;50.828;6.080;2023-03-14T03:35:13;20.40;56.20
24144;DHT22;12307;50.828;6.080;2023-03-14T03:37:40;20.40;56.20
24144;DHT22;12307;50.828;6.080;2023-03-14T03:40:07;20.40;56.20
24144;DHT22;12307;50.828;6.080;2023-03-14T03:42:34;20.40;56.30
24144;DHT22;12307;50.828;6.080;2023-03-14T03:45:00;20.40;56.20
24144;DHT22;12307;50.828;6.080;2023-03-14T03:47:26;20.40;56.20
24144;DHT22;12307;50.828;6.080;2023-03-14T03:49:51;20.40;56.30
24144;DHT22;12307;50.828;6.080;2023-03-14T03:52:17;20.40;56.30
24144;DHT22;12307;50.828;6.080;2023-03-14T03:54:45;20.40;56.30
24144;DHT22;12307;50.828;6.080;2023-03-14T03:57:10;20.40;56.30
24144;DHT22;12307;50.828;6.080;2023-03-14T03:59:36;20.40;56.30
24144;DHT22;12307;50.828;6.080;2023-03-14T04:02:04;20.40;56.30
24144;DHT22;12307;50.828;6.080;2023-03-14T04:04:29;20.40;56.30
24144;DHT22;12307;50.828;6.080;2023-03-14T04:06:55;20.40;56.30
24144;DHT22;12307;50.828;6.080;2023-03-14T04:09:21;20.40;56.30
24144;DHT22;12307;50.828;6.080;2023-03-14T04:11:48;20.40;56.30
24144;DHT22;12307;50.828;6.080;2023-03-14T04:14:13;20.40;56.30
24144;DHT22;12307;50.828;6.080;2023-03-14T04:16:39;20.40;56.30
24144;DHT22;12307;50.828;6.080;2023-03-14T04:19:05;20.40;56.30
24144;DHT22;12307;50.828;6.080;2023-03-14T04:21:30;20.40;56.30
24144;DHT22;12307;50.828;6.080;2023-03-14T04:23:56;20.40;56.30
24144;DHT22;12307;50.828;6.080;2023-03-14T04:26:22;20.40;56.30
24144;DHT22;12307;50.828;6.080;2023-03-14T04:28:49;20.40;56.30
24144;DHT22;12307;50.828;6.080;2023-03-14T04:31:17;20.40;56.30
24144;DHT22;12307;50.828;6.080;2023-03-14T04:33:44;20.40;56.30
24144;DHT22;12307;50.828;6.080;2023-03-14T04:36:10;20.40;56.30
24144;DHT22;12307;50.828;6.080;2023-03-14T04:38:36;20.40;56.30
24144;DHT22;12307;50.828;6.080;2023-03-14T04:41:02;20.40;56.30
24144;DHT22;12307;50.828;6.080;2023-03-14T04:43:28;20.40;56.30
24144;DHT22;12307;50.828;6.080;2023-03-14T04:45:56;20.40;56.30
24144;DHT22;12307;50.828;6.080;2023-03-14T04:48:22;20.40;56.30
24144;DHT22;12307;50.828;6.080;2023-03-14T04:50:48;20.40;56.30
24144;DHT22;12307;50.828;6.080;2023-03-14T04:53:14;20.40;56.30
24144;DHT22;12307;50.828;6.080;2023-03-14T04:55:40;20.40;56.30
24144;DHT22;12307;50.828;6.080;2023-03-14T04:58:06;20.40;56.30
24144;DHT22;12307;50.828;6.080;2023-03-14T05:00:32;20.40;56.30
24144;DHT22;12307;50.828;6.080;2023-03-14T05:02:59;20.40;56.30
24144;DHT22;12307;50.828;6.080;2023-03-14T05:05:25;20.40;56.30
24144;DHT22;12307;50.828;6.080;2023-03-14T05:07:51;20.30;56.30
24144;DHT22;12307;50.828;6.080;2023-03-14T05:10:17;20.30;56.30
24144;DHT22;12307;50.828;6.080;2023-03-14T05:12:42;20.40;56.30
24144;DHT22;12307;50.828;6.080;2023-03-14T05:15:09;20.40;56.30
24144;DHT22;12307;50.828;6.080;2023-03-14T05:17:34;20.40;56.30
24144;DHT22;12307;50.828;6.080;2023-03-14T05:20:02;20.30;56.30
24144;DHT22;12307;50.828;6.080;2023-03-14T05:22:33;20.30;56.30
24144;DHT22;12307;50.828;6.080;2023-03-14T05:24:59;20.30;56.30
24144;DHT22;12307;50.828;6.080;2023-03-14T05:27:24;20.40;56.30
24144;DHT22;12307;50.828;6.080;2023-03-14T05:29:50;20.40;56.30
24144;DHT22;12307;50.828;6.080;2023-03-14T05:32:16;20.30;56.30
24144;DHT22;12307;50.828;6.080;2023-03-14T05:34:41;20.30;56.30
24144;DHT22;12307;50.828;6.080;2023-03-14T05:37:08;20.30;56.30
24144;DHT22;12307;50.828;6.080;2023-03-14T05:39:34;20.30;56.30
24144;DHT22;12307;50.828;6.080;2023-03-14T05:42:00;20.30;56.30
24144;DHT22;12307;50.828;6.080;2023-03-14T05:44:25;20.30;56.30
24144;DHT22;12307;50.828;6.080;2023-03-14T05:46:51;20.30;56.30
24144;DHT22;12307;50.828;6.080;2023-03-14T05:49:17;20.30;56.30
24144;DHT22;12307;50.828;6.080;2023-03-14T05:51:42;20.30;56.30
24144;DHT22;12307;50.828;6.080;2023-03-14T05:54:09;20.30;56.30
24144;DHT22;12307;50.828;6.080;2023-03-14T05:56:35;20.40;56.30
24144;DHT22;12307;50.828;6.080;2023-03-14T05:59:01;20.30;56.30
24144;DHT22;12307;50.828;6.080;2023-03-14T06:01:28;20.30;56.30
24144;DHT22;12307;50.828;6.080;2023-03-14T06:03:54;20.30;56.30
24144;DHT22;12307;50.828;6.080;2023-03-14T06:06:20;20.30;56.30
24144;DHT22;12307;50.828;6.080;2023-03-14T06:08:46;20.30;56.30
24144;DHT22;12307;50.828;6.080;2023-03-14T06:11:13;20.40;56.30
24144;DHT22;12307;50.828;6.080;2023-03-14T06:13:38;20.40;56.30
24144;DHT22;12307;50.828;6.080;2023-03-14T06:16:05;20.30;56.30
24144;DHT22;12307;50.828;6.080;2023-03-14T06:18:31;20.30;56.30
24144;DHT22;12307;50.828;6.080;2023-03-14T06:20:57;20.40;56.30
24144;DHT22;12307;50.828;6.080;2023-03-14T06:23:23;20.40;56.30
24144;DHT22;12307;50.828;6.080;2023-03-14T06:25:50;20.40;56.30
24144;DHT22;12307;50.828;6.080;2023-03-14T06:28:17;20.40;56.30
24144;DHT22;12307;50.828;6.080;2023-03-14T06:30:43;20.40;56.30
24144;DHT22;12307;50.828;6.080;2023-03-14T06:33:09;20.40;56.30
24144;DHT22;12307;50.828;6.080;2023-03-14T06:35:35;20.40;56.30
24144;DHT22;12307;50.828;6.080;2023-03-14T06:38:01;20.40;56.30
24144;DHT22;12307;50.828;6.080;2023-03-14T06:40:26;20.40;56.30
24144;DHT22;12307;50.828;6.080;2023-03-14T06:42:52;20.40;56.30
24144;DHT22;12307;50.828;6.080;2023-03-14T06:45:19;20.40;56.20
24144;DHT22;12307;50.828;6.080;2023-03-14T06:47:45;20.40;56.20
24144;DHT22;12307;50.828;6.080;2023-03-14T06:50:11;20.40;56.20
24144;DHT22;12307;50.828;6.080;2023-03-14T06:52:37;20.40;56.20
24144;DHT22;12307;50.828;6.080;2023-03-14T06:55:03;20.50;56.20
24144;DHT22;12307;50.828;6.080;2023-03-14T06:57:29;20.50;56.20
24144;DHT22;12307;50.828;6.080;2023-03-14T06:59:54;20.50;56.20
24144;DHT22;12307;50.828;6.080;2023-03-14T07:02:22;20.50;56.20
24144;DHT22;12307;50.828;6.080;2023-03-14T07:04:48;20.50;56.30
24144;DHT22;12307;50.828;6.080;2023-03-14T07:07:14;20.50;56.30
24144;DHT22;12307;50.828;6.080;2023-03-14T07:09:39;20.50;56.20
24144;DHT22;12307;50.828;6.080;2023-03-14T07:12:05;20.50;56.30
24144;DHT22;12307;50.828;6.080;2023-03-14T07:14:31;20.50;56.30
24144;DHT22;12307;50.828;6.080;2023-03-14T07:16:57;20.50;56.30
24144;DHT22;12307;50.828;6.080;2023-03-14T07:19:24;20.50;56.30
24144;DHT22;12307;50.828;6.080;2023-03-14T07:21:50;20.50;56.20
24144;DHT22;12307;50.828;6.080;2023-03-14T07:24:15;20.50;56.20
24144;DHT22;12307;50.828;6.080;2023-03-14T07:26:41;20.50;56.20
24144;DHT22;12307;50.828;6.080;2023-03-14T07:29:07;20.50;56.20
24144;DHT22;12307;50.828;6.080;2023-03-14T07:31:32;20.60;56.30
24144;DHT22;12307;50.828;6.080;2023-03-14T07:33:58;20.50;56.20
24144;DHT22;12307;50.828;6.080;2023-03-14T07:36:25;20.50;56.20
24144;DHT22;12307;50.828;6.080;2023-03-14T07:38:51;20.50;56.20
24144;DHT22;12307;50.828;6.080;2023-03-14T07:41:18;20.50;56.20
24144;DHT22;12307;50.828;6.080;2023-03-14T07:43:43;20.50;56.20
24144;DHT22;12307;50.828;6.080;2023-03-14T07:46:09;20.50;56.20
24144;DHT22;12307;50.828;6.080;2023-03-14T07:48:35;20.50;56.30
24144;DHT22;12307;50.828;6.080;2023-03-14T07:51:00;20.50;56.30
24144;DHT22;12307;50.828;6.080;2023-03-14T07:53:27;20.50;56.30
24144;DHT22;12307;50.828;6.080;2023-03-14T07:55:54;20.50;56.40
24144;DHT22;12307;50.828;6.080;2023-03-14T07:58:20;20.50;56.40
24144;DHT22;12307;50.828;6.080;2023-03-14T08:00:47;20.50;56.40
24144;DHT22;12307;50.828;6.080;2023-03-14T08:03:13;20.50;57.00
24144;DHT22;12307;50.828;6.080;2023-03-14T08:05:39;20.50;56.30
24144;DHT22;12307;50.828;6.080;2023-03-14T08:08:05;20.60;56.40
24144;DHT22;12307;50.828;6.080;2023-03-14T08:10:32;20.60;56.30
24144;DHT22;12307;50.828;6.080;2023-03-14T08:12:59;20.60;56.30
24144;DHT22;12307;50.828;6.080;2023-03-14T08:15:26;20.60;56.30
24144;DHT22;12307;50.828;6.080;2023-03-14T08:17:53;20.60;56.30
24144;DHT22;12307;50.828;6.080;2023-03-14T08:20:20;20.70;56.30
24144;DHT22;12307;50.828;6.080;2023-03-14T08:22:46;20.70;56.40
24144;DHT22;12307;50.828;6.080;2023-03-14T08:25:12;20.70;56.30
24144;DHT22;12307;50.828;6.080;2023-03-14T08:27:39;20.70;56.30
24144;DHT22;12307;50.828;6.080;2023-03-14T08:30:09;20.70;56.40
24144;DHT22;12307;50.828;6.080;2023-03-14T08:32:35;20.70;56.40
24144;DHT22;12307;50.828;6.080;2023-03-14T08:35:00;20.70;56.40
24144;DHT22;12307;50.828;6.080;2023-03-14T08:37:26;20.70;56.40
24144;DHT22;12307;50.828;6.080;2023-03-14T08:39:53;20.70;56.50
24144;DHT22;12307;50.828;6.080;2023-03-14T08:42:18;20.70;56.50
24144;DHT22;12307;50.828;6.080;2023-03-14T08:44:45;20.60;56.50
24144;DHT22;12307;50.828;6.080;2023-03-14T08:47:11;20.60;56.50
24144;DHT22;12307;50.828;6.080;2023-03-14T08:49:37;20.60;56.50
24144;DHT22;12307;50.828;6.080;2023-03-14T08:52:03;20.60;56.60
24144;DHT22;12307;50.828;6.080;2023-03-14T08:54:29;20.60;56.60
24144;DHT22;12307;50.828;6.080;2023-03-14T08:56:54;20.60;56.60
24144;DHT22;12307;50.828;6.080;2023-03-14T08:59:20;20.60;56.60
24144;DHT22;12307;50.828;6.080;2023-03-14T09:01:47;20.60;56.60
24144;DHT22;12307;50.828;6.080;2023-03-14T09:04:13;20.60;56.60
24144;DHT22;12307;50.828;6.080;2023-03-14T09:06:39;20.60;56.60
24144;DHT22;12307;50.828;6.080;2023-03-14T09:09:05;20.60;56.60
24144;DHT22;12307;50.828;6.080;2023-03-14T09:11:31;20.60;56.70
24144;DHT22;12307;50.828;6.080;2023-03-14T09:13:57;20.60;56.60
24144;DHT22;12307;50.828;6.080;2023-03-14T09:16:23;20.60;56.60
24144;DHT22;12307;50.828;6.080;2023-03-14T09:18:50;20.60;56.60
24144;DHT22;12307;50.828;6.080;2023-03-14T09:21:16;20.60;56.60
24144;DHT22;12307;50.828;6.080;2023-03-14T09:23:42;20.60;56.60
24144;DHT22;12307;50.828;6.080;2023-03-14T09:26:07;20.60;56.60
24144;DHT22;12307;50.828;6.080;2023-03-14T09:28:33;20.60;56.60
24144;DHT22;12307;50.828;6.080;2023-03-14T09:31:05;20.60;56.50
24144;DHT22;12307;50.828;6.080;2023-03-14T09:33:31;20.60;56.50
24144;DHT22;12307;50.828;6.080;2023-03-14T09:35:59;20.60;56.50
24144;DHT22;12307;50.828;6.080;2023-03-14T09:38:25;20.50;56.40
24144;DHT22;12307;50.828;6.080;2023-03-14T09:40:52;20.50;56.40
24144;DHT22;12307;50.828;6.080;2023-03-14T09:43:19;20.50;56.30
24144;DHT22;12307;50.828;6.080;2023-03-14T09:45:48;20.50;56.30
24144;DHT22;12307;50.828;6.080;2023-03-14T09:48:16;20.50;56.30
24144;DHT22;12307;50.828;6.080;2023-03-14T09:50:45;20.50;56.30
24144;DHT22;12307;50.828;6.080;2023-03-14T09:53:15;20.50;56.30
24144;DHT22;12307;50.828;6.080;2023-03-14T09:55:43;20.50;56.20
24144;DHT22;12307;50.828;6.080;2023-03-14T09:58:12;20.50;56.80
24144;DHT22;12307;50.828;6.080;2023-03-14T10:00:39;20.50;56.20
24144;DHT22;12307;50.828;6.080;2023-03-14T10:03:23;20.50;56.20
24144;DHT22;12307;50.828;6.080;2023-03-14T10:05:50;20.50;56.10
24144;DHT22;12307;50.828;6.080;2023-03-14T10:08:17;20.50;56.10
24144;DHT22;12307;50.828;6.080;2023-03-14T10:10:43;20.50;56.10
24144;DHT22;12307;50.828;6.080;2023-03-14T10:13:15;20.50;56.00
24144;DHT22;12307;50.828;6.080;2023-03-14T10:15:41;20.50;55.90
24144;DHT22;12307;50.828;6.080;2023-03-14T10:18:11;20.60;55.80
24144;DHT22;12307;50.828;6.080;2023-03-14T10:20:40;20.80;55.50
24144;DHT22;12307;50.828;6.080;2023-03-14T10:23:26;21.00;55.30
24144;DHT22;12307;50.828;6.080;2023-03-14T10:26:05;21.20;55.10
24144;DHT22;12307;50.828;6.080;2023-03-14T10:28:33;21.20;55.00
24144;DHT22;12307;50.828;6.080;2023-03-14T10:30:59;21.20;55.00
24144;DHT22;12307;50.828;6.080;2023-03-14T10:33:27;21.20;55.00
24144;DHT22;12307;50.828;6.080;2023-03-14T10:35:55;21.10;55.00
24144;DHT22;12307;50.828;6.080;2023-03-14T10:38:22;21.10;55.10
24144;DHT22;12307;50.828;6.080;2023-03-14T10:40:52;21.00;55.00
24144;DHT22;12307;50.828;6.080;2023-03-14T10:43:23;21.10;55.00
24144;DHT22;12307;50.828;6.080;2023-03-14T10:45:54;21.50;54.60
24144;DHT22;12307;50.828;6.080;2023-03-14T10:48:25;21.80;54.20
24144;DHT22;12307;50.828;6.080;2023-03-14T10:50:56;21.90;53.90
24144;DHT22;12307;50.828;6.080;2023-03-14T10:53:23;22.00;53.80
24144;DHT22;12307;50.828;6.080;2023-03-14T10:55:48;21.90;53.70
24144;DHT22;12307;50.828;6.080;2023-03-14T10:58:24;21.80;53.80
24144;DHT22;12307;50.828;6.080;2023-03-14T11:00:57;21.70;54.00
24144;DHT22;12307;50.828;6.080;2023-03-14T11:03:27;21.60;54.00
24144;DHT22;12307;50.828;6.080;2023-03-14T11:05:57;21.60;54.10
24144;DHT22;12307;50.828;6.080;2023-03-14T11:08:27;21.60;54.00
24144;DHT22;12307;50.828;6.080;2023-03-14T11:11:02;21.60;54.00
24144;DHT22;12307;50.828;6.080;2023-03-14T11:13:37;21.70;54.00
24144;DHT22;12307;50.828;6.080;2023-03-14T11:16:11;21.70;53.70
24144;DHT22;12307;50.828;6.080;2023-03-14T11:21:39;22.60;52.70
24144;DHT22;12307;50.828;6.080;2023-03-14T11:24:38;23.20;52.00
24144;DHT22;12307;50.828;6.080;2023-03-14T11:27:15;23.80;51.20
24144;DHT22;12307;50.828;6.080;2023-03-14T11:29:48;24.20;50.60
24144;DHT22;12307;50.828;6.080;2023-03-14T11:32:32;24.40;50.30
24144;DHT22;12307;50.828;6.080;2023-03-14T11:35:03;24.40;50.00
24144;DHT22;12307;50.828;6.080;2023-03-14T11:37:33;24.30;50.00
24144;DHT22;12307;50.828;6.080;2023-03-14T11:40:05;24.20;50.20
24144;DHT22;12307;50.828;6.080;2023-03-14T11:42:33;24.00;50.30
24144;DHT22;12307;50.828;6.080;2023-03-14T11:45:01;23.80;50.60
24144;DHT22;12307;50.828;6.080;2023-03-14T11:47:31;23.50;51.00
24144;DHT22;12307;50.828;6.080;2023-03-14T11:50:03;23.20;51.30
24144;DHT22;12307;50.828;6.080;2023-03-14T11:52:35;22.90;51.70
24144;DHT22;12307;50.828;6.080;2023-03-14T11:55:06;22.60;52.10
24144;DHT22;12307;50.828;6.080;2023-03-14T11:57:33;22.40;52.30
24144;DHT22;12307;50.828;6.080;2023-03-14T12:00:02;22.20;52.60
24144;DHT22;12307;50.828;6.080;2023-03-14T12:02:35;22.00;52.90
24144;DHT22;12307;50.828;6.080;2023-03-14T12:05:37;21.90;53.10
24144;DHT22;12307;50.828;6.080;2023-03-14T12:08:31;21.70;53.20
24144;DHT22;12307;50.828;6.080;2023-03-14T12:11:00;21.60;53.30
24144;DHT22;12307;50.828;6.080;2023-03-14T12:13:29;21.50;53.60
24144;DHT22;12307;50.828;6.080;2023-03-14T12:15:58;21.40;53.70
24144;DHT22;12307;50.828;6.080;2023-03-14T12:18:28;21.30;53.90
24144;DHT22;12307;50.828;6.080;2023-03-14T12:20:57;21.30;54.00
24144;DHT22;12307;50.828;6.080;2023-03-14T12:23:24;21.20;54.00
24144;DHT22;12307;50.828;6.080;2023-03-14T12:26:07;21.20;54.20
24144;DHT22;12307;50.828;6.080;2023-03-14T12:28:34;21.10;54.20
24144;DHT22;12307;50.828;6.080;2023-03-14T12:31:38;21.10;54.30
24144;DHT22;12307;50.828;6.080;2023-03-14T12:34:28;21.10;54.40
24144;DHT22;12307;50.828;6.080;2023-03-14T12:36:59;21.10;54.50
24144;DHT22;12307;50.828;6.080;2023-03-14T12:39:35;21.00;54.50
24144;DHT22;12307;50.828;6.080;2023-03-14T12:42:08;21.00;54.50
24144;DHT22;12307;50.828;6.080;2023-03-14T12:44:46;21.00;54.50
24144;DHT22;12307;50.828;6.080;2023-03-14T12:47:47;21.00;54.60
24144;DHT22;12307;50.828;6.080;2023-03-14T12:50:22;21.00;54.60
24144;DHT22;12307;50.828;6.080;2023-03-14T12:53:02;20.90;54.60
24144;DHT22;12307;50.828;6.080;2023-03-14T12:55:35;20.90;54.70
24144;DHT22;12307;50.828;6.080;2023-03-14T12:58:07;20.90;54.70
24144;DHT22;12307;50.828;6.080;2023-03-14T13:00:35;20.90;54.80
24144;DHT22;12307;50.828;6.080;2023-03-14T13:03:18;20.80;54.70
24144;DHT22;12307;50.828;6.080;2023-03-14T13:05:52;20.80;54.70
24144;DHT22;12307;50.828;6.080;2023-03-14T13:08:36;20.80;54.70
24144;DHT22;12307;50.828;6.080;2023-03-14T13:11:06;20.80;54.80
24144;DHT22;12307;50.828;6.080;2023-03-14T13:13:35;20.80;54.80
24144;DHT22;12307;50.828;6.080;2023-03-14T13:16:02;20.80;54.80
24144;DHT22;12307;50.828;6.080;2023-03-14T13:18:36;20.70;54.70
24144;DHT22;12307;50.828;6.080;2023-03-14T13:21:05;20.70;54.80
24144;DHT22;12307;50.828;6.080;2023-03-14T13:23:33;20.70;54.70
24144;DHT22;12307;50.828;6.080;2023-03-14T13:26:00;20.70;54.70
24144;DHT22;12307;50.828;6.080;2023-03-14T13:28:26;20.70;54.70
24144;DHT22;12307;50.828;6.080;2023-03-14T13:30:56;20.70;54.70
24144;DHT22;12307;50.828;6.080;2023-03-14T13:33:23;20.70;54.70
24144;DHT22;12307;50.828;6.080;2023-03-14T13:35:55;20.60;54.60
24144;DHT22;12307;50.828;6.080;2023-03-14T13:38:22;20.60;54.70
24144;DHT22;12307;50.828;6.080;2023-03-14T13:40:49;20.60;54.60
24144;DHT22;12307;50.828;6.080;2023-03-14T13:43:18;20.60;54.60
24144;DHT22;12307;50.828;6.080;2023-03-14T13:45:53;20.60;54.60
24144;DHT22;12307;50.828;6.080;2023-03-14T13:48:21;20.60;54.60
24144;DHT22;12307;50.828;6.080;2023-03-14T13:50:55;20.50;54.50
24144;DHT22;12307;50.828;6.080;2023-03-14T13:53:22;20.60;54.60
24144;DHT22;12307;50.828;6.080;2023-03-14T13:55:49;20.50;54.50
24144;DHT22;12307;50.828;6.080;2023-03-14T13:58:26;20.50;54.40
24144;DHT22;12307;50.828;6.080;2023-03-14T14:01:01;20.50;54.40
24144;DHT22;12307;50.828;6.080;2023-03-14T14:03:28;20.50;54.40
24144;DHT22;12307;50.828;6.080;2023-03-14T14:05:57;20.60;54.50
24144;DHT22;12307;50.828;6.080;2023-03-14T14:08:24;20.60;54.50
24144;DHT22;12307;50.828;6.080;2023-03-14T14:10:55;20.60;54.50
24144;DHT22;12307;50.828;6.080;2023-03-14T14:13:24;20.60;54.40
24144;DHT22;12307;50.828;6.080;2023-03-14T14:15:52;20.70;54.50
24144;DHT22;12307;50.828;6.080;2023-03-14T14:18:19;20.70;54.40
24144;DHT22;12307;50.828;6.080;2023-03-14T14:20:47;20.70;54.40
24144;DHT22;12307;50.828;6.080;2023-03-14T14:23:17;20.80;54.40
24144;DHT22;12307;50.828;6.080;2023-03-14T14:25:45;20.80;54.40
24144;DHT22;12307;50.828;6.080;2023-03-14T14:28:16;20.90;54.40
24144;DHT22;12307;50.828;6.080;2023-03-14T14:30:42;20.90;54.40
24144;DHT22;12307;50.828;6.080;2023-03-14T14:33:18;20.90;54.30
24144;DHT22;12307;50.828;6.080;2023-03-14T14:35:51;20.90;54.30
24144;DHT22;12307;50.828;6.080;2023-03-14T14:38:18;20.90;54.30
24144;DHT22;12307;50.828;6.080;2023-03-14T14:40:47;20.90;54.30
24144;DHT22;12307;50.828;6.080;2023-03-14T14:43:17;20.90;54.30
24144;DHT22;12307;50.828;6.080;2023-03-14T14:45:45;20.90;54.30
24144;DHT22;12307;50.828;6.080;2023-03-14T14:48:13;20.90;54.30
24144;DHT22;12307;50.828;6.080;2023-03-14T14:50:49;20.90;54.40
24144;DHT22;12307;50.828;6.080;2023-03-14T14:53:23;20.90;54.40
24144;DHT22;12307;50.828;6.080;2023-03-14T14:55:51;20.90;54.40
24144;DHT22;12307;50.828;6.080;2023-03-14T14:58:23;20.90;54.40
24144;DHT22;12307;50.828;6.080;2023-03-14T15:00:55;20.90;54.40
24144;DHT22;12307;50.828;6.080;2023-03-14T15:03:21;20.90;55.00
24144;DHT22;12307;50.828;6.080;2023-03-14T15:05:47;21.00;54.40
24144;DHT22;12307;50.828;6.080;2023-03-14T15:08:13;21.00;54.40
24144;DHT22;12307;50.828;6.080;2023-03-14T15:10:40;21.00;54.40
24144;DHT22;12307;50.828;6.080;2023-03-14T15:13:05;21.00;54.30
24144;DHT22;12307;50.828;6.080;2023-03-14T15:15:31;21.00;54.30
24144;DHT22;12307;50.828;6.080;2023-03-14T15:17:57;21.10;55.00
24144;DHT22;12307;50.828;6.080;2023-03-14T15:20:23;21.10;54.30
24144;DHT22;12307;50.828;6.080;2023-03-14T15:22:49;21.10;54.40
24144;DHT22;12307;50.828;6.080;2023-03-14T15:25:15;21.10;54.40
24144;DHT22;12307;50.828;6.080;2023-03-14T15:27:42;21.10;54.40
24144;DHT22;12307;50.828;6.080;2023-03-14T15:30:10;21.10;54.40
24144;DHT22;12307;50.828;6.080;2023-03-14T15:32:36;21.10;54.40
24144;DHT22;12307;50.828;6.080;2023-03-14T15:35:02;21.10;54.40
24144;DHT22;12307;50.828;6.080;2023-03-14T15:37:28;21.00;54.40
24144;DHT22;12307;50.828;6.080;2023-03-14T15:39:55;21.00;54.40